aviador You're here:

YSRI Decoded Metar

RICHMOND in AUSTRALIA
Report Time2017-11-25 07:30:00
UTC Time2017-11-25 07:46:53
Flight Rules vfr VFR
Wind070° at 12 kt
W.Decomp.*RWY 10: 8.9 kt HW 8 kt LCW
W.Rank070° ranks 2
Current wind is above 070° avg. (5.5)
Visibility9999 m
Phenomena:N/A
Clouds:N/A
Expected CloudBase > 4,400 ft AGL from Temp-Dew spread
CeilingNone
Temp26°C (ISA +11)
Dew Point15°C (51% RH)
AAT23.3°C
QNH1015 hPa
Density Alt1,516 ft
Elevation69 ft
Report Wrong Elevation
Raw Report
YSRI 250730Z AUTO 07012KT 9999 // NCD 26/15 Q1015 RF00.0/000.0
PRESENT WEATHER SENSOR US=

Extra information for YSRI:More info

Metar Taf Metar & Taf Last 4 Metars F.Rules Stats Wind Profile Meteogram Temp Stats Airport Information Weather charts Add Link Nearby VenuesMetar ALERT Operation Metar Decoded Social comments